createdAt,value
2017-07-03T00:01:12.346Z,101216
2017-07-03T00:03:41.114Z,101221
2017-07-03T00:06:09.446Z,101218
2017-07-03T00:08:37.734Z,101216
2017-07-03T00:11:06.339Z,101223
2017-07-03T00:13:34.600Z,101220
2017-07-03T00:16:02.872Z,101214
2017-07-03T00:18:31.566Z,101219
2017-07-03T00:20:59.860Z,101219
2017-07-03T00:23:28.133Z,101224
2017-07-03T00:25:56.806Z,101220
2017-07-03T00:28:25.089Z,101224
2017-07-03T00:30:53.384Z,101226
2017-07-03T00:33:22.036Z,101229
2017-07-03T00:35:50.312Z,101225
2017-07-03T00:38:18.665Z,101226
2017-07-03T00:40:47.581Z,101234
2017-07-03T00:43:15.885Z,101238
2017-07-03T00:45:44.167Z,101229
2017-07-03T00:48:12.792Z,101229
2017-07-03T00:50:41.171Z,101226
2017-07-03T00:53:09.459Z,101234
2017-07-03T00:55:38.156Z,101228
2017-07-03T00:58:06.498Z,101232
2017-07-03T01:00:34.894Z,101235
2017-07-03T01:03:03.603Z,101232
2017-07-03T01:05:31.882Z,101234
2017-07-03T01:08:00.165Z,101236
2017-07-03T01:10:29.088Z,101231
2017-07-03T01:12:58.317Z,101216
2017-07-03T01:15:26.593Z,101213
2017-07-03T01:17:55.348Z,101220
2017-07-03T01:20:23.622Z,101223
2017-07-03T01:22:52.679Z,101220
2017-07-03T01:25:21.489Z,101227
2017-07-03T01:27:49.762Z,101228
2017-07-03T01:30:18.138Z,101230
2017-07-03T01:32:46.773Z,101235
2017-07-03T01:35:15.209Z,101237
2017-07-03T01:37:43.498Z,101227
2017-07-03T01:40:12.957Z,101230
2017-07-03T01:42:41.231Z,101234
2017-07-03T01:45:09.523Z,101228
2017-07-03T01:47:38.373Z,101222
2017-07-03T01:50:06.644Z,101225
2017-07-03T01:52:35.110Z,101225
2017-07-03T01:55:03.744Z,101226
2017-07-03T01:57:32.066Z,101223
2017-07-03T02:00:00.332Z,101214
2017-07-03T02:02:29.747Z,101220
2017-07-03T02:04:58.048Z,101220
2017-07-03T02:07:26.311Z,101218
2017-07-03T02:09:54.956Z,101220
2017-07-03T02:12:24.017Z,101229
2017-07-03T02:14:52.401Z,101229
2017-07-03T02:17:21.067Z,101230
2017-07-03T02:19:49.394Z,101230
2017-07-03T02:22:18.502Z,101223
2017-07-03T02:24:47.227Z,101231
2017-07-03T02:27:15.493Z,101226
2017-07-03T02:29:43.788Z,101225
2017-07-03T02:32:12.459Z,101223
2017-07-03T02:34:40.910Z,101232
2017-07-03T02:37:09.178Z,101227
2017-07-03T02:39:37.891Z,101226
2017-07-03T02:42:06.171Z,101224
2017-07-03T02:44:34.437Z,101232
2017-07-03T02:47:03.144Z,101228
2017-07-03T02:49:31.445Z,101226
2017-07-03T02:51:59.779Z,101239
2017-07-03T02:54:28.556Z,101232
2017-07-03T02:56:56.820Z,101237
2017-07-03T02:59:25.128Z,101232
2017-07-03T03:01:53.805Z,101220
2017-07-03T03:04:22.105Z,101229
2017-07-03T03:06:50.389Z,101233
2017-07-03T03:09:19.161Z,101234
2017-07-03T03:11:47.467Z,101239
2017-07-03T03:14:16.497Z,101235
2017-07-03T03:16:45.305Z,101231
2017-07-03T03:19:13.674Z,101235
2017-07-03T03:21:41.933Z,101240
2017-07-03T03:24:10.625Z,101239
2017-07-03T03:26:38.906Z,101245
2017-07-03T03:29:07.436Z,101247
2017-07-03T03:31:36.121Z,101243
2017-07-03T03:34:04.399Z,101242
2017-07-03T03:36:32.693Z,101234
2017-07-03T03:39:02.138Z,101238
2017-07-03T03:41:30.426Z,101237
2017-07-03T03:43:58.784Z,101244
2017-07-03T03:46:27.464Z,101246
2017-07-03T03:48:55.708Z,101246
2017-07-03T03:51:24.007Z,101233
2017-07-03T03:53:52.704Z,101235
2017-07-03T03:56:21.100Z,101233
2017-07-03T03:58:49.464Z,101237
2017-07-03T04:01:18.147Z,101250
2017-07-03T04:03:46.452Z,101244
2017-07-03T04:06:14.741Z,101252
2017-07-03T04:08:43.385Z,101250
2017-07-03T04:11:11.648Z,101250
2017-07-03T04:13:39.930Z,101245
2017-07-03T04:16:08.614Z,101247
2017-07-03T04:18:36.898Z,101246
2017-07-03T04:21:05.208Z,101247
2017-07-03T04:23:33.965Z,101245
2017-07-03T04:26:02.258Z,101248
2017-07-03T04:28:30.532Z,101250
2017-07-03T04:30:59.280Z,101246
2017-07-03T04:33:27.605Z,101250
2017-07-03T04:35:55.879Z,101255
2017-07-03T04:38:24.647Z,101253
2017-07-03T04:40:52.923Z,101250
2017-07-03T04:43:21.185Z,101256
2017-07-03T04:45:49.810Z,101238
2017-07-03T04:48:18.860Z,101247
2017-07-03T04:50:47.145Z,101243
2017-07-03T04:53:15.789Z,101235
2017-07-03T04:55:44.064Z,101233
2017-07-03T04:58:12.351Z,101230
2017-07-03T05:00:40.996Z,101238
2017-07-03T05:03:10.043Z,101232
2017-07-03T05:05:38.365Z,101227
2017-07-03T05:08:07.751Z,101227
2017-07-03T05:10:36.038Z,101228
2017-07-03T05:13:04.289Z,101223
2017-07-03T05:15:32.952Z,101221
2017-07-03T05:18:01.221Z,101223
2017-07-03T05:20:29.516Z,101225
2017-07-03T05:22:58.193Z,101231
2017-07-03T05:25:26.478Z,101235
2017-07-03T05:27:54.875Z,101234
2017-07-03T05:30:23.633Z,101234
2017-07-03T05:32:51.937Z,101238
2017-07-03T05:35:20.327Z,101242
2017-07-03T05:37:49.777Z,101244
2017-07-03T05:40:18.087Z,101245
2017-07-03T05:42:52.386Z,101248
2017-07-03T05:45:20.738Z,101250
2017-07-03T05:47:49.034Z,101246
2017-07-03T05:50:17.724Z,101257
2017-07-03T05:52:46.002Z,101252
2017-07-03T05:55:14.283Z,101256
2017-07-03T05:57:42.913Z,101252
2017-07-03T06:00:11.201Z,101256
2017-07-03T06:02:39.472Z,101261
2017-07-03T06:05:08.199Z,101259
2017-07-03T06:07:36.602Z,101258
2017-07-03T06:10:04.931Z,101252
2017-07-03T06:12:33.621Z,101258
2017-07-03T06:15:02.091Z,101253
2017-07-03T06:17:30.509Z,101257
2017-07-03T06:19:59.175Z,101249
2017-07-03T06:22:27.475Z,101245
2017-07-03T06:24:55.749Z,101245
2017-07-03T06:27:24.405Z,101244
2017-07-03T06:29:52.683Z,101246
2017-07-03T06:32:21.174Z,101242
2017-07-03T06:34:49.740Z,101245
2017-07-03T06:37:18.008Z,101241
2017-07-03T06:39:46.479Z,101237
2017-07-03T06:42:15.203Z,101233
2017-07-03T06:44:43.480Z,101240
2017-07-03T06:47:11.757Z,101238
2017-07-03T06:49:40.426Z,101246
2017-07-03T06:52:08.696Z,101257
2017-07-03T06:54:36.979Z,101256
2017-07-03T06:57:05.630Z,101265
2017-07-03T06:59:33.906Z,101259
2017-07-03T07:02:02.377Z,101258
2017-07-03T07:04:31.104Z,101266
2017-07-03T07:06:59.398Z,101257
2017-07-03T07:09:27.716Z,101261
2017-07-03T07:11:56.422Z,101259
2017-07-03T07:14:24.693Z,101246
2017-07-03T07:16:52.985Z,101252
2017-07-03T07:19:21.774Z,101245
2017-07-03T07:21:50.054Z,101254
2017-07-03T07:24:18.328Z,101250
2017-07-03T07:26:47.026Z,101258
2017-07-03T07:29:15.311Z,101264
2017-07-03T07:31:43.606Z,101253
2017-07-03T07:34:13.160Z,101253
2017-07-03T07:36:41.452Z,101250
2017-07-03T07:39:09.727Z,101250
2017-07-03T07:41:38.399Z,101246
2017-07-03T07:44:06.684Z,101263
2017-07-03T07:46:34.953Z,101259
2017-07-03T07:49:03.610Z,101264
2017-07-03T07:51:31.970Z,101261
2017-07-03T07:54:01.007Z,101249
2017-07-03T07:56:29.621Z,101259
2017-07-03T07:58:57.908Z,101267
2017-07-03T08:01:26.947Z,101256
2017-07-03T08:03:55.640Z,101270
2017-07-03T08:06:23.926Z,101261
2017-07-03T08:08:52.204Z,101264
2017-07-03T08:11:20.836Z,101256
2017-07-03T08:13:49.213Z,101258
2017-07-03T08:16:17.481Z,101264
2017-07-03T08:18:46.085Z,101268
2017-07-03T08:21:14.368Z,101266
2017-07-03T08:23:42.645Z,101264
2017-07-03T08:26:11.292Z,101264
2017-07-03T08:28:39.569Z,101256
2017-07-03T08:31:08.622Z,101257
2017-07-03T08:33:37.296Z,101263
2017-07-03T08:36:05.596Z,101254
2017-07-03T08:38:33.927Z,101248
2017-07-03T08:41:02.654Z,101244
2017-07-03T08:43:30.928Z,101240
2017-07-03T08:45:59.227Z,101247
2017-07-03T08:48:28.653Z,101238
2017-07-03T08:50:56.936Z,101240
2017-07-03T08:53:25.217Z,101236
2017-07-03T08:55:53.995Z,101241
2017-07-03T08:58:22.273Z,101235
2017-07-03T09:00:50.538Z,101232
2017-07-03T09:03:19.147Z,101234
2017-07-03T09:05:47.428Z,101224
2017-07-03T09:08:15.701Z,101239
2017-07-03T09:10:44.378Z,101231
2017-07-03T09:13:12.660Z,101230
2017-07-03T09:15:40.969Z,101234
2017-07-03T09:18:09.595Z,101233
2017-07-03T09:20:37.922Z,101223
2017-07-03T09:23:06.240Z,101226
2017-07-03T09:25:35.697Z,101227
2017-07-03T09:28:03.982Z,101222
2017-07-03T09:30:32.265Z,101220
2017-07-03T09:33:00.920Z,101223
2017-07-03T09:35:29.216Z,101224
2017-07-03T09:37:57.507Z,101226
2017-07-03T09:40:26.203Z,101224
2017-07-03T09:42:54.484Z,101218
2017-07-03T09:45:22.764Z,101212
2017-07-03T09:47:51.405Z,101209
2017-07-03T09:50:19.726Z,101211
2017-07-03T09:52:48.010Z,101208
2017-07-03T09:55:16.736Z,101212
2017-07-03T09:57:45.026Z,101207
2017-07-03T10:00:13.344Z,101199
2017-07-03T10:02:42.071Z,101190
2017-07-03T10:05:10.361Z,101184
2017-07-03T10:07:38.657Z,101183
2017-07-03T10:10:07.300Z,101179
2017-07-03T10:12:35.586Z,101172
2017-07-03T10:15:03.917Z,101186
2017-07-03T10:17:32.631Z,101186
2017-07-03T10:20:00.906Z,101176
2017-07-03T10:22:29.189Z,101186
2017-07-03T10:24:57.875Z,101180
2017-07-03T10:27:26.169Z,101175
2017-07-03T10:29:54.693Z,101179
2017-07-03T10:32:23.445Z,101176
2017-07-03T10:34:51.740Z,101160
2017-07-03T10:37:20.787Z,101163
2017-07-03T10:39:49.582Z,101164
2017-07-03T10:42:17.897Z,101162
2017-07-03T10:44:47.061Z,101154
2017-07-03T10:47:15.765Z,101164
2017-07-03T10:49:44.091Z,101168
2017-07-03T10:52:12.381Z,101152
2017-07-03T10:54:41.068Z,101139
2017-07-03T10:57:09.345Z,101147
2017-07-03T10:59:37.644Z,101156
2017-07-03T11:02:06.300Z,101144
2017-07-03T11:04:34.597Z,101156
2017-07-03T11:07:03.970Z,101148
2017-07-03T11:09:32.692Z,101156
2017-07-03T11:12:01.355Z,101147
2017-07-03T11:14:29.713Z,101140
2017-07-03T11:16:58.459Z,101136
2017-07-03T11:19:27.521Z,101135
2017-07-03T11:21:55.813Z,101126
2017-07-03T11:24:24.464Z,101126
2017-07-03T11:26:52.748Z,101120
2017-07-03T11:29:21.056Z,101124
2017-07-03T11:31:49.709Z,101106
2017-07-03T11:34:18.068Z,101124
2017-07-03T11:36:46.367Z,101116
2017-07-03T11:39:15.142Z,101115
2017-07-03T11:41:43.442Z,101115
2017-07-03T11:44:11.782Z,101105
2017-07-03T11:46:40.471Z,101113
2017-07-03T11:49:08.746Z,101110
2017-07-03T11:51:37.076Z,101101
2017-07-03T11:54:06.662Z,101093
2017-07-03T11:56:35.169Z,101086
2017-07-03T11:59:04.281Z,101080
2017-07-03T12:01:32.905Z,101087
2017-07-03T12:04:01.209Z,101088
2017-07-03T12:06:29.534Z,101087
2017-07-03T12:08:58.152Z,101084
2017-07-03T12:11:26.585Z,101075
2017-07-03T12:13:54.910Z,101071
2017-07-03T12:16:23.696Z,101079
2017-07-03T12:18:51.984Z,101071
2017-07-03T12:21:20.267Z,101071
2017-07-03T12:23:48.914Z,101065
2017-07-03T12:26:17.221Z,101061
2017-07-03T12:28:45.550Z,101063
2017-07-03T12:31:14.243Z,101074
2017-07-03T12:33:42.520Z,101061
2017-07-03T12:36:10.886Z,101047
2017-07-03T12:38:39.611Z,101056
2017-07-03T12:41:07.896Z,101053
2017-07-03T12:43:36.192Z,101045
2017-07-03T12:46:05.637Z,101044
2017-07-03T12:48:33.925Z,101052
2017-07-03T12:51:02.249Z,101031
2017-07-03T12:53:31.704Z,101030
2017-07-03T12:55:59.993Z,101028
2017-07-03T12:58:28.270Z,101028
2017-07-03T13:00:57.036Z,101028
2017-07-03T13:03:25.328Z,101029
2017-07-03T13:05:53.621Z,101028
2017-07-03T13:08:22.264Z,101030
2017-07-03T13:10:50.570Z,101020
2017-07-03T13:13:18.857Z,101002
2017-07-03T13:15:47.489Z,101015
2017-07-03T13:18:15.778Z,101006
2017-07-03T13:20:44.084Z,101020
2017-07-03T13:23:12.928Z,100999
2017-07-03T13:25:41.209Z,101005
2017-07-03T13:28:09.510Z,101006
2017-07-03T13:30:38.247Z,101001
2017-07-03T13:33:06.552Z,101000
2017-07-03T13:35:34.871Z,101001
2017-07-03T13:38:03.623Z,100996
2017-07-03T13:40:31.919Z,100992
2017-07-03T13:43:00.197Z,100987
2017-07-03T13:45:28.881Z,100984
2017-07-03T13:47:57.173Z,100978
2017-07-03T13:50:26.253Z,100982
2017-07-03T13:52:54.919Z,100985
2017-07-03T13:55:23.189Z,100977
2017-07-03T13:57:51.497Z,100966
2017-07-03T14:00:20.169Z,100975
2017-07-03T14:02:48.460Z,100971
2017-07-03T14:05:16.896Z,100973
2017-07-03T14:07:45.602Z,100957
2017-07-03T14:10:13.972Z,100962
2017-07-03T14:12:42.311Z,100950
2017-07-03T14:15:11.031Z,100959
2017-07-03T14:17:39.477Z,100967
2017-07-03T14:20:07.763Z,100956
2017-07-03T14:22:36.477Z,100956
2017-07-03T14:25:04.771Z,100953
2017-07-03T14:27:33.050Z,100951
2017-07-03T14:30:01.732Z,100942
2017-07-03T14:32:30.064Z,100948
2017-07-03T14:34:58.368Z,100937
2017-07-03T14:37:27.066Z,100942
2017-07-03T14:39:55.376Z,100925
2017-07-03T14:42:23.669Z,100920
2017-07-03T14:44:52.389Z,100922
2017-07-03T14:49:59.722Z,100908
2017-07-03T14:52:28.777Z,100913
2017-07-03T14:54:57.060Z,100891
2017-07-03T14:57:25.836Z,100891
2017-07-03T14:59:54.110Z,100892
2017-07-03T15:02:22.466Z,100886
2017-07-03T15:04:51.212Z,100874
2017-07-03T15:07:19.655Z,100870
2017-07-03T15:09:47.939Z,100860
2017-07-03T15:12:16.711Z,100860
2017-07-03T15:14:45.017Z,100845
2017-07-03T15:17:13.346Z,100849
2017-07-03T15:19:42.143Z,100837
2017-07-03T15:22:10.439Z,100835
2017-07-03T15:24:38.734Z,100843
2017-07-03T15:27:07.570Z,100848
2017-07-03T15:29:35.867Z,100852
2017-07-03T15:32:04.166Z,100853
2017-07-03T15:34:32.839Z,100848
2017-07-03T15:37:01.151Z,100849
2017-07-03T15:39:30.202Z,100845
2017-07-03T15:41:58.908Z,100833
2017-07-03T15:44:27.250Z,100866
2017-07-03T15:46:55.528Z,100889
2017-07-03T15:49:24.178Z,100908
2017-07-03T15:51:53.272Z,100884
2017-07-03T15:54:22.334Z,100893
2017-07-03T15:56:51.171Z,100877
2017-07-03T15:59:19.585Z,100879
2017-07-03T16:01:47.933Z,100880
2017-07-03T16:04:16.655Z,100864
2017-07-03T16:06:45.064Z,100860
2017-07-03T16:09:14.306Z,100851
2017-07-03T16:11:43.000Z,100856
2017-07-03T16:14:11.302Z,100854
2017-07-03T16:16:39.580Z,100834
2017-07-03T16:19:08.254Z,100837
2017-07-03T16:21:36.545Z,100839
2017-07-03T16:24:04.831Z,100819
2017-07-03T16:26:33.581Z,100814
2017-07-03T16:29:01.884Z,100809
2017-07-03T16:31:30.161Z,100809
2017-07-03T16:33:58.804Z,100810
2017-07-03T16:36:27.068Z,100814
2017-07-03T16:38:55.523Z,100815
2017-07-03T16:41:24.163Z,100812
2017-07-03T16:43:52.470Z,100819
2017-07-03T16:46:22.172Z,100821
2017-07-03T16:48:50.821Z,100823
2017-07-03T16:51:19.115Z,100819
2017-07-03T16:53:47.622Z,100814
2017-07-03T16:56:17.013Z,100811
2017-07-03T16:58:45.302Z,100811
2017-07-03T17:01:14.387Z,100813
2017-07-03T17:03:43.845Z,100810
2017-07-03T17:06:12.173Z,100828
2017-07-03T17:08:41.235Z,100830
2017-07-03T17:11:09.929Z,100834
2017-07-03T17:13:38.259Z,100861
2017-07-03T17:16:06.545Z,100909
2017-07-03T17:18:35.249Z,100898
2017-07-03T17:21:03.564Z,100897
2017-07-03T17:23:31.846Z,100871
2017-07-03T17:26:01.297Z,100876
2017-07-03T17:28:29.557Z,100878
2017-07-03T17:30:57.883Z,100866
2017-07-03T17:33:26.674Z,100861
2017-07-03T17:35:55.953Z,100868
2017-07-03T17:38:24.285Z,100868
2017-07-03T17:40:52.994Z,100870
2017-07-03T17:43:21.281Z,100886
2017-07-03T17:45:49.586Z,100874
2017-07-03T17:48:19.055Z,100888
2017-07-03T17:50:47.366Z,100887
2017-07-03T17:53:15.713Z,100898
2017-07-03T17:55:44.411Z,100892
2017-07-03T17:58:12.703Z,100895
2017-07-03T18:00:41.037Z,100894
2017-07-03T18:03:09.751Z,100897
2017-07-03T18:05:38.065Z,100890
2017-07-03T18:08:06.341Z,100893
2017-07-03T18:10:35.065Z,100899
2017-07-03T18:13:03.535Z,100907
2017-07-03T18:15:31.841Z,100912
2017-07-03T18:18:00.623Z,100899
2017-07-03T18:20:28.975Z,100904
2017-07-03T18:22:57.284Z,100899
2017-07-03T18:25:26.070Z,100900
2017-07-03T18:27:54.393Z,100901
2017-07-03T18:30:22.777Z,100899
2017-07-03T18:32:51.495Z,100901
2017-07-03T18:35:19.871Z,100898
2017-07-03T18:37:48.145Z,100894
2017-07-03T18:40:16.860Z,100889
2017-07-03T18:42:45.140Z,100897
2017-07-03T18:45:13.460Z,100892
2017-07-03T18:47:42.251Z,100891
2017-07-03T18:50:10.566Z,100889
2017-07-03T18:52:38.867Z,100886
2017-07-03T18:55:08.313Z,100889
2017-07-03T18:57:36.651Z,100904
2017-07-03T19:00:05.778Z,100907
2017-07-03T19:02:34.487Z,100906
2017-07-03T19:05:02.948Z,100896
2017-07-03T19:07:31.261Z,100893
2017-07-03T19:09:59.923Z,100902
2017-07-03T19:12:28.253Z,100891
2017-07-03T19:14:56.557Z,100898
2017-07-03T19:17:25.280Z,100897
2017-07-03T19:19:53.592Z,100904
2017-07-03T19:22:21.949Z,100898
2017-07-03T19:24:51.436Z,100898
2017-07-03T19:27:19.727Z,100907
2017-07-03T19:29:48.045Z,100894
2017-07-03T19:32:16.755Z,100897
2017-07-03T19:34:46.151Z,100891
2017-07-03T19:37:14.452Z,100902
2017-07-03T19:39:43.081Z,100912
2017-07-03T19:42:11.571Z,100906
2017-07-03T19:44:39.871Z,100903
2017-07-03T19:47:09.335Z,100914
2017-07-03T19:49:37.836Z,100912
2017-07-03T19:52:06.145Z,100917
2017-07-03T19:54:34.937Z,100922
2017-07-03T19:57:03.388Z,100919
2017-07-03T19:59:31.800Z,100920
2017-07-03T20:02:00.421Z,100923
2017-07-03T20:04:28.731Z,100920
2017-07-03T20:06:57.095Z,100927
2017-07-03T20:09:26.033Z,100924
2017-07-03T20:11:54.444Z,100924
2017-07-03T20:14:22.722Z,100922
2017-07-03T20:16:51.374Z,100922
2017-07-03T20:19:19.674Z,100914
2017-07-03T20:21:48.101Z,100914
2017-07-03T20:24:16.747Z,100922
2017-07-03T20:26:45.038Z,100924
2017-07-03T20:29:13.336Z,100918
2017-07-03T20:31:41.961Z,100928
2017-07-03T20:34:11.024Z,100936
2017-07-03T20:36:39.318Z,100945
2017-07-03T20:39:08.158Z,100938
2017-07-03T20:41:36.448Z,100949
2017-07-03T20:44:04.768Z,100947
2017-07-03T20:46:34.329Z,100939
2017-07-03T20:49:02.756Z,100938
2017-07-03T20:51:31.839Z,100934
2017-07-03T20:54:00.745Z,100935
2017-07-03T20:56:29.809Z,100929
2017-07-03T20:58:58.110Z,100937
2017-07-03T21:01:27.638Z,100934
2017-07-03T21:03:56.040Z,100932
2017-07-03T21:06:24.994Z,100930
2017-07-03T21:08:53.735Z,100927
2017-07-03T21:11:22.043Z,100927
2017-07-03T21:13:51.101Z,100922
2017-07-03T21:16:19.910Z,100924
2017-07-03T21:18:48.244Z,100923
2017-07-03T21:21:16.544Z,100930
2017-07-03T21:23:45.204Z,100922
2017-07-03T21:26:13.514Z,100941
2017-07-03T21:28:41.816Z,100940
2017-07-03T21:31:11.324Z,100936
2017-07-03T21:33:40.404Z,100947
2017-07-03T21:36:08.681Z,100942
2017-07-03T21:38:37.442Z,100944
2017-07-03T21:41:05.742Z,100954
2017-07-03T21:43:34.033Z,100955
2017-07-03T21:46:03.499Z,100945
2017-07-03T21:48:31.804Z,100950
2017-07-03T21:51:00.158Z,100955
2017-07-03T21:53:28.929Z,100949
2017-07-03T21:55:57.223Z,100946
2017-07-03T21:58:25.560Z,100954
2017-07-03T22:00:54.278Z,100948
2017-07-03T22:03:22.537Z,100952
2017-07-03T22:05:50.820Z,100937
2017-07-03T22:08:19.506Z,100938
2017-07-03T22:10:47.806Z,100947
2017-07-03T22:13:16.095Z,100943
2017-07-03T22:15:45.586Z,100944
2017-07-03T22:18:13.901Z,100945
2017-07-03T22:20:42.258Z,100942
2017-07-03T22:23:11.706Z,100950
2017-07-03T22:25:39.995Z,100953
2017-07-03T22:28:08.297Z,100955
2017-07-03T22:30:37.059Z,100947
2017-07-03T22:33:05.350Z,100946
2017-07-03T22:35:33.733Z,100955
2017-07-03T22:38:02.507Z,100954
2017-07-03T22:40:30.803Z,100954
2017-07-03T22:42:59.867Z,100945
2017-07-03T22:45:28.551Z,100942
2017-07-03T22:47:56.838Z,100945
2017-07-03T22:50:25.179Z,100954
2017-07-03T22:52:53.880Z,100941
2017-07-03T22:55:22.175Z,100935
2017-07-03T22:57:50.473Z,100940
2017-07-03T23:00:20.059Z,100937
2017-07-03T23:02:48.378Z,100928
2017-07-03T23:05:16.681Z,100933
2017-07-03T23:07:45.369Z,100940
2017-07-03T23:10:13.621Z,100934
2017-07-03T23:12:41.904Z,100945
2017-07-03T23:15:10.613Z,100945
2017-07-03T23:17:38.910Z,100939
2017-07-03T23:20:07.200Z,100939
2017-07-03T23:22:35.858Z,100940
2017-07-03T23:25:04.130Z,100940
2017-07-03T23:27:32.560Z,100946
2017-07-03T23:30:01.197Z,100943
2017-07-03T23:32:29.517Z,100943
2017-07-03T23:34:58.557Z,100950
2017-07-03T23:37:27.221Z,100940
2017-07-03T23:39:55.496Z,100947
2017-07-03T23:42:23.767Z,100943
2017-07-03T23:44:52.410Z,100934
2017-07-03T23:47:21.466Z,100944
2017-07-03T23:49:49.853Z,100938
2017-07-03T23:52:18.490Z,100933
2017-07-03T23:54:46.797Z,100930
2017-07-03T23:57:15.104Z,100924
2017-07-03T23:59:43.941Z,100931
